ProRodeoTv.Com
Red

PRCA Stock Statistics

SEARCH BY:
Stock Rodeo Contestant Stock Contractor

Jordan Sammons

EVENT:
Unofficial results reflect placement at time of Web posting and can change.

SEASON BREAKDOWN

Season Attempts Qual Rides Re-rides Ride %
2015 71 14 0 19.72 %
Totals 71 14 0 0.00 %

RODEO DETAIL

Date Location Rodeo SC Brand Ride Comments Stock Score Contestant Score
9/20/2015 Tyler, TX Rose City Roundup UP 15 0.00 21.00 / 19.00 0.00 / 0.00
9/19/2015 Texarkana, AR 71st Annual Four States Fair & Rodeo CR 222 0.00 21.00 / 20.00 0.00 / 0.00
9/16/2015 Pasadena, TX Pasadena Livestock Show & Rodeo CP -929 79.00 19.00 / 20.00 20.00 / 20.00
8/14/2015 Fairfield, TX Big T Bash & PRCA Rodeo LJ 28 0.00 19.00 / 0.00 0.00 / 0.00
7/30/2015 Sidney, IA Iowa s Championship Rodeo CC X34 0.00 18.00 / 20.00 0.00 / 0.00
7/29/2015 Abilene, KS Wild Bill Hickok Rodeo AN 117 0.00 20.00 / 21.00 0.00 / 0.00
7/28/2015 Dodge City, KS Dodge City Roundup Xtreme Bulls FL 9002 0.00 19.00 / 21.00 0.00 / 0.00
7/24/2015 Cheyenne, WY Cheyenne Frontier Days JB 1191 0.00 0.00 / 0.00 0.00 / 0.00
7/23/2015 Cheyenne, WY Cheyenne Frontier Days HL 90 0.00 0.00 / 0.00 0.00 / 0.00
7/21/2015 Ogden, UT Ogden Pioneer Days KR 777 78.00 19.00 / 19.00 20.00 / 20.00
7/21/2015 Salt Lake City, UT The Days of 47 Salt Lake DG C25 0.00 22.00 / 22.00 0.00 / 0.00
7/17/2015 Salinas, CA California Rodeo Salinas RO 64 0.00 19.00 / 18.00 0.00 / 0.00
7/15/2015 Nampa, ID Snake River Stampede CC 12 0.00 23.00 / 0.00 0.00 / 0.00
7/12/2015 Laramie, WY Laramie Jubilee Days 76.00 18.00 / 19.00 19.00 / 20.00
7/11/2015 Sheridan, WY Sheridan WYO Rodeo SA 166 0.00 17.00 / 15.50 0.00 / 0.00
7/10/2015 Casper, WY Central Wyoming Fair & Rodeo CC H11 0.00 19.00 / 20.00 0.00 / 0.00
7/9/2015 Laramie, WY Laramie Jubilee Days Xtreme Bulls JK 011 75.00 18.00 / 18.00 20.00 / 19.00
7/7/2015 Estes Park, CO Rooftop Rodeo CC W 0.00 19.00 / 19.00 0.00 / 0.00
7/4/2015 Red Lodge, MT Home Of Champions Rodeo BR 391 0.00 21.00 / 21.00 0.00 / 0.00
7/3/2015 Livingston, MT Livingston Roundup GK 211 73.00 18.00 / 19.00 18.00 / 18.00
7/3/2015 Belle Fourche, SD Black Hills Roundup DH 26Y 0.00 19.00 / 22.00 0.00 / 0.00
7/2/2015 West Jordan, UT Western Stampede CC E10 0.00 20.00 / 22.00 0.00 / 0.00
7/1/2015 Oakley City, UT Oakley Independence Day Rodeo BT 015 0.00 16.00 / 19.00 0.00 / 0.00
6/30/2015 Cody, WY Cody/Yellowstone Xtreme Bulls FR E95 0.00 20.50 / 20.50 0.00 / 0.00
6/28/2015 Greeley, CO Greeley Stampede BU 08 0.00 18.00 / 19.00 0.00 / 0.00
Page of 3
Per Page
 
 
 
Copyright © 2017 Professional Rodeo Cowboys Association. All rights reserved. No portion of ProRodeo.com may be duplicated, redistributed or manipulated in any form. By accessing any information beyond this page, you agree to abide by the Terms of Use.
PRCA Wrangler National Finals Rodeo Wrangler Champions Challenge Justin Boots Playoffs Xtreme Bulls RAM National Circuit Finals Rodeo ProRodeo Gear ProRodeoTv.com var gaJsHost = (("https:" == document.location.protocol) ? "https://ssl." : "http://www."); document.write(unescape("%3Cscript src='" + gaJsHost + "google-analytics.com/ga.js' type='text/javascript'%3E%3C/script%3E"));